Time;durP1;ratioP1;P1;durP2;ratioP2;P2;SDS_P1;SDS_P2;PMS_P1;PMS_P2;Temp;Humidity;BMP_temperature;BMP_pressure;BME280_temperature;BME280_humidity;BME280_pressure;Samples;Min_cycle;Max_cycle;Signal;HPM_P1;HPM_P2
2021/01/28 00:01:06;;;;;;;16.13;9.40;;;-1.60;95.50;;;;;;5039695;28;20109;-83
2021/01/28 00:03:32;;;;;;;16.00;9.95;;;-1.60;95.50;;;;;;5039542;28;20025;-83
2021/01/28 00:05:57;;;;;;;16.98;8.88;;;-1.60;95.60;;;;;;5039239;28;20541;-83
2021/01/28 00:08:23;;;;;;;17.38;9.73;;;-1.20;96.10;;;;;;5039222;28;20028;-84
2021/01/28 00:10:48;;;;;;;17.20;9.60;;;-1.70;95.70;;;;;;5039472;28;20033;-83
2021/01/28 00:13:14;;;;;;;20.80;10.20;;;-1.70;95.60;;;;;;5039311;28;20108;-83
2021/01/28 00:15:40;;;;;;;19.83;9.52;;;-1.70;95.70;;;;;;5039200;28;20059;-84
2021/01/28 00:18:08;;;;;;;15.30;9.65;;;-1.10;95.90;;;;;;5038770;28;20028;-82
2021/01/28 00:20:40;;;;;;;15.15;8.85;;;-1.10;95.90;;;;;;5039077;28;20021;-83
2021/01/28 00:23:07;;;;;;;14.77;9.75;;;-1.70;95.70;;;;;;5039123;28;20029;-84
2021/01/28 00:25:34;;;;;;;17.30;9.75;;;-1.60;95.70;;;;;;5038488;28;20029;-86
2021/01/28 00:27:59;;;;;;;19.27;10.45;;;-1.70;95.70;;;;;;5039660;28;20032;-84
2021/01/28 00:30:29;;;;;;;17.08;9.50;;;-1.80;95.70;;;;;;5022964;28;20435;-83
2021/01/28 00:32:56;;;;;;;18.38;10.20;;;-1.70;95.70;;;;;;5039083;28;20496;-83
2021/01/28 00:35:28;;;;;;;15.45;9.35;;;-1.60;95.70;;;;;;5039313;28;20044;-83
2021/01/28 00:37:55;;;;;;;17.50;9.73;;;-1.60;95.70;;;;;;5039185;28;20031;-83
2021/01/28 00:40:21;;;;;;;17.13;10.48;;;-1.70;95.80;;;;;;5039151;28;20870;-83
2021/01/28 00:42:49;;;;;;;18.75;10.98;;;-1.60;95.80;;;;;;5039138;28;20103;-83
2021/01/28 00:45:19;;;;;;;20.20;11.27;;;-1.30;96.00;;;;;;5038837;28;20087;-83
2021/01/28 00:47:45;;;;;;;15.82;9.80;;;-1.70;96.00;;;;;;5039158;28;20083;-83
2021/01/28 00:50:12;;;;;;;15.63;9.40;;;-1.70;95.90;;;;;;5038983;28;20025;-84
2021/01/28 00:52:40;;;;;;;16.02;9.20;;;-1.70;95.80;;;;;;5038605;28;20017;-84
2021/01/28 00:55:07;;;;;;;13.88;8.43;;;-1.60;95.70;;;;;;5039487;28;20025;-83
2021/01/28 00:57:33;;;;;;;16.55;8.95;;;-1.70;95.60;;;;;;5039438;28;20025;-82
2021/01/28 00:59:59;;;;;;;16.13;8.55;;;-1.70;95.60;;;;;;5038990;28;20098;-84
2021/01/28 01:02:25;;;;;;;18.23;9.00;;;-1.70;95.40;;;;;;5039005;28;20052;-83
2021/01/28 01:04:50;;;;;;;16.10;8.85;;;-1.70;95.40;;;;;;5038636;28;20025;-84
2021/01/28 01:07:16;;;;;;;16.17;9.05;;;-1.70;95.40;;;;;;5038710;28;20128;-83
2021/01/28 01:09:42;;;;;;;15.15;9.05;;;-1.70;95.50;;;;;;5038976;28;20361;-82
2021/01/28 01:12:08;;;;;;;15.10;8.18;;;-1.60;95.30;;;;;;5042622;28;20033;-84
2021/01/28 01:14:33;;;;;;;13.70;8.93;;;-1.60;95.40;;;;;;5042808;28;20107;-83
2021/01/28 01:16:59;;;;;;;17.67;9.25;;;-1.60;95.50;;;;;;5042697;28;20021;-83
2021/01/28 01:19:24;;;;;;;16.65;8.90;;;-1.60;95.30;;;;;;5042494;28;20083;-84
2021/01/28 01:21:50;;;;;;;18.00;9.13;;;-1.60;95.40;;;;;;5041676;28;20050;-82
2021/01/28 01:24:16;;;;;;;15.68;9.23;;;-1.50;95.60;;;;;;5042080;28;20028;-83
2021/01/28 01:26:42;;;;;;;17.42;9.00;;;-1.60;95.60;;;;;;5042359;28;20037;-82
2021/01/28 01:29:08;;;;;;;14.98;9.75;;;-1.60;95.80;;;;;;5042383;28;20032;-82
2021/01/28 01:31:34;;;;;;;16.52;8.98;;;-1.60;95.90;;;;;;5042873;28;20035;-85
2021/01/28 01:33:59;;;;;;;12.95;8.13;;;-1.60;96.00;;;;;;5042275;28;20052;-85
2021/01/28 01:36:25;;;;;;;16.90;10.68;;;-1.20;96.30;;;;;;5042330;28;20090;-84
2021/01/28 01:38:50;;;;;;;14.45;8.77;;;-1.60;96.00;;;;;;5041120;28;20025;-82
2021/01/28 01:41:16;;;;;;;18.35;8.60;;;-1.50;96.00;;;;;;5042373;28;20029;-83
2021/01/28 01:43:42;;;;;;;19.05;8.82;;;-1.50;95.80;;;;;;5042647;28;20045;-84
2021/01/28 01:46:13;;;;;;;17.60;8.90;;;-1.50;95.70;;;;;;5042448;28;20037;-83
2021/01/28 01:48:42;;;;;;;14.60;9.23;;;-1.50;95.80;;;;;;5042197;28;20582;-82
2021/01/28 01:51:19;;;;;;;17.75;8.43;;;-1.50;95.90;;;;;;5041946;28;20080;-83
2021/01/28 01:54:27;;;;;;;12.13;8.38;;;-1.40;96.10;;;;;;5041603;28;20097;-83
2021/01/28 01:56:57;;;;;;;17.05;8.63;;;-1.50;96.00;;;;;;4943835;29;20054;-84
2021/01/28 01:59:31;;;;;;;15.48;8.90;;;-1.50;95.80;;;;;;4943757;29;20037;-83
2021/01/28 02:02:05;;;;;;;15.68;9.10;;;-1.60;95.80;;;;;;4984749;28;20071;-85
2021/01/28 02:04:32;;;;;;;14.75;9.30;;;-1.50;95.80;;;;;;5042205;28;20079;-83
2021/01/28 02:07:15;;;;;;;16.70;9.57;;;-1.50;95.80;;;;;;5041446;28;20421;-84
2021/01/28 02:09:42;;;;;;;13.65;8.73;;;-1.10;96.00;;;;;;5041321;28;20027;-86
2021/01/28 02:12:08;;;;;;;16.30;9.70;;;-1.50;95.90;;;;;;5040933;28;20021;-85
2021/01/28 02:14:34;;;;;;;15.63;9.20;;;-1.60;95.80;;;;;;5041330;28;20030;-84
2021/01/28 02:17:22;;;;;;;16.80;8.98;;;-1.50;95.80;;;;;;5041204;28;20423;-84
2021/01/28 02:20:12;;;;;;;15.25;9.10;;;-1.50;95.80;;;;;;5041742;28;20113;-84
2021/01/28 02:22:46;;;;;;;13.30;8.57;;;-1.50;95.70;;;;;;5039795;28;20029;-85
2021/01/28 02:25:22;;;;;;;14.82;8.73;;;-1.50;95.60;;;;;;5041679;28;20045;-83
2021/01/28 02:27:49;;;;;;;13.88;8.38;;;-1.50;95.60;;;;;;5041142;28;20036;-83
2021/01/28 02:30:20;;;;;;;19.55;9.48;;;-1.50;95.60;;;;;;5041212;28;20369;-82
2021/01/28 02:33:07;;;;;;;22.55;9.27;;;-1.50;95.60;;;;;;5041175;28;20047;-84
2021/01/28 02:35:34;;;;;;;22.35;11.82;;;-1.40;95.60;;;;;;5040813;28;20035;-83
2021/01/28 02:38:05;;;;;;;24.35;12.00;;;-1.50;95.50;;;;;;5041013;28;20021;-83
2021/01/28 02:40:31;;;;;;;21.90;12.35;;;-1.50;95.50;;;;;;5040713;28;20029;-85
2021/01/28 02:42:57;;;;;;;18.15;10.15;;;-1.70;95.40;;;;;;5040348;28;20049;-84
2021/01/28 02:45:30;;;;;;;23.25;10.93;;;-1.60;95.50;;;;;;5040256;28;20048;-82
2021/01/28 02:47:59;;;;;;;20.33;11.23;;;-1.50;95.50;;;;;;5040569;28;20041;-84
2021/01/28 02:50:26;;;;;;;19.50;10.15;;;-1.80;95.30;;;;;;5040646;28;20025;-83
2021/01/28 02:52:54;;;;;;;20.45;9.68;;;-1.90;95.20;;;;;;5040343;28;20025;-82
2021/01/28 02:55:20;;;;;;;15.75;7.72;;;-1.90;95.30;;;;;;5040757;28;20025;-83
2021/01/28 02:57:46;;;;;;;10.95;5.90;;;-1.00;95.70;;;;;;5040713;28;20092;-83
2021/01/28 03:00:14;;;;;;;9.82;5.60;;;-2.10;95.70;;;;;;5040212;28;20055;-85
2021/01/28 03:02:40;;;;;;;14.57;7.20;;;-2.20;96.00;;;;;;5040458;28;20029;-83
2021/01/28 03:05:07;;;;;;;11.10;7.28;;;-2.10;96.20;;;;;;5040624;28;20490;-84
2021/01/28 03:07:32;;;;;;;19.40;10.38;;;-2.20;96.50;;;;;;5040577;28;20044;-83
2021/01/28 03:09:58;;;;;;;13.73;8.52;;;-2.20;96.80;;;;;;5040602;28;20119;-83
2021/01/28 03:12:24;;;;;;;11.57;7.45;;;-2.20;96.60;;;;;;5040550;28;20032;-84
2021/01/28 03:14:49;;;;;;;19.90;7.72;;;-2.20;96.50;;;;;;5040616;28;20029;-84
2021/01/28 03:17:15;;;;;;;13.60;8.30;;;-2.20;96.60;;;;;;5058394;28;20025;-84
2021/01/28 03:19:40;;;;;;;13.88;8.57;;;-2.20;96.80;;;;;;5040640;28;20036;-83
2021/01/28 03:22:06;;;;;;;15.73;9.10;;;-2.10;96.90;;;;;;5040401;28;20122;-83
2021/01/28 03:24:32;;;;;;;17.92;10.20;;;-2.10;96.80;;;;;;5039996;28;20033;-83
2021/01/28 03:26:57;;;;;;;15.10;9.27;;;-2.00;96.90;;;;;;5040198;28;20036;-84
2021/01/28 03:29:23;;;;;;;14.60;8.23;;;-2.00;96.70;;;;;;5039920;28;20021;-82
2021/01/28 03:31:49;;;;;;;14.80;7.25;;;-2.00;96.50;;;;;;5039896;28;20047;-82
2021/01/28 03:34:14;;;;;;;13.10;7.43;;;-2.00;96.40;;;;;;5039661;28;20084;-84
2021/01/28 03:36:41;;;;;;;11.05;6.53;;;-1.50;96.40;;;;;;5040192;28;20021;-83
2021/01/28 03:39:07;;;;;;;10.75;6.30;;;-1.60;96.30;;;;;;5039844;28;20093;-85
2021/01/28 03:41:33;;;;;;;12.93;6.68;;;-2.00;96.20;;;;;;5040280;28;20048;-82
2021/01/28 03:43:59;;;;;;;9.98;5.93;;;-2.00;96.30;;;;;;5057494;28;20140;-82
2021/01/28 03:46:24;;;;;;;11.13;6.40;;;-1.90;96.00;;;;;;5057394;28;20065;-84
2021/01/28 03:48:50;;;;;;;11.98;6.32;;;-2.10;95.90;;;;;;5039430;28;20025;-82
2021/01/28 03:51:16;;;;;;;12.38;7.05;;;-2.10;95.80;;;;;;5039913;28;20040;-83
2021/01/28 03:53:41;;;;;;;15.43;6.88;;;-2.20;95.90;;;;;;5039695;28;20033;-84
2021/01/28 03:56:07;;;;;;;11.00;6.97;;;-2.10;96.10;;;;;;5039527;28;20123;-85
2021/01/28 03:58:32;;;;;;;11.68;6.75;;;-2.00;96.20;;;;;;5039944;28;20092;-83
2021/01/28 04:00:58;;;;;;;11.05;6.35;;;-1.90;96.20;;;;;;5039230;28;20094;-82
2021/01/28 04:03:24;;;;;;;9.00;5.65;;;-1.60;96.20;;;;;;5039729;28;20032;-83
2021/01/28 04:05:50;;;;;;;9.27;5.43;;;-2.10;95.90;;;;;;5039028;28;20036;-84
2021/01/28 04:08:15;;;;;;;8.15;4.85;;;-2.10;95.70;;;;;;5039682;28;20064;-84
2021/01/28 04:10:41;;;;;;;10.93;5.78;;;-2.10;95.80;;;;;;5039430;28;20029;-84
2021/01/28 04:13:07;;;;;;;10.85;5.70;;;-2.20;95.90;;;;;;5038782;28;20021;-83
2021/01/28 04:15:34;;;;;;;9.40;5.82;;;-2.30;95.90;;;;;;5038936;28;20052;-84
2021/01/28 04:18:00;;;;;;;10.65;6.07;;;-2.30;95.80;;;;;;5038934;28;20059;-84
2021/01/28 04:20:30;;;;;;;9.02;5.80;;;-2.20;96.00;;;;;;5038726;28;20036;-84
2021/01/28 04:22:56;;;;;;;9.38;6.03;;;-2.40;96.00;;;;;;5039392;28;20479;-82
2021/01/28 04:25:23;;;;;;;11.75;6.25;;;-2.40;96.10;;;;;;5039323;28;20022;-82
2021/01/28 04:27:49;;;;;;;8.73;5.75;;;-2.40;96.10;;;;;;5039337;28;20040;-82
2021/01/28 04:30:25;;;;;;;9.65;5.63;;;-2.40;96.30;;;;;;5039464;28;20021;-84
2021/01/28 04:32:51;;;;;;;9.60;5.25;;;-2.40;96.20;;;;;;5039288;28;20029;-83
2021/01/28 04:35:17;;;;;;;7.85;4.85;;;-2.50;96.20;;;;;;5039147;28;20026;-83
2021/01/28 04:37:43;;;;;;;6.72;4.00;;;-2.40;96.20;;;;;;5038684;28;20465;-84
2021/01/28 04:40:35;;;;;;;7.00;4.40;;;-2.40;96.20;;;;;;5039120;28;20106;-84
2021/01/28 04:43:12;;;;;;;7.88;5.30;;;-2.50;96.10;;;;;;5038346;28;20075;-84
2021/01/28 04:45:37;;;;;;;7.82;4.15;;;-2.50;96.40;;;;;;5040949;28;20052;-85
2021/01/28 04:48:05;;;;;;;11.40;4.90;;;-2.40;96.40;;;;;;5043486;28;20059;-84
2021/01/28 04:50:35;;;;;;;9.32;4.82;;;-2.40;96.30;;;;;;5042879;28;20033;-82
2021/01/28 04:53:09;;;;;;;7.35;4.40;;;-2.40;96.30;;;;;;5043033;28;20021;-86
2021/01/28 04:55:44;;;;;;;8.27;4.32;;;-2.40;96.40;;;;;;5042780;28;20029;-82
2021/01/28 04:58:10;;;;;;;;;;;-2.40;96.30;;;;;;5042751;28;20029;-83
2021/01/28 05:00:36;;;;;;;8.35;4.50;;;-2.40;96.20;;;;;;5043138;28;20252;-82
2021/01/28 05:03:28;;;;;;;7.45;4.13;;;-2.40;96.00;;;;;;5042612;28;20021;-84
2021/01/28 05:05:56;;;;;;;6.53;4.75;;;-2.40;95.90;;;;;;5032411;28;20040;-84
2021/01/28 05:08:22;;;;;;;14.98;7.35;;;-2.40;96.10;;;;;;5042497;28;20070;-83
2021/01/28 05:10:52;;;;;;;14.07;7.70;;;-2.40;96.10;;;;;;5042294;28;20034;-85
2021/01/28 05:13:28;;;;;;;12.35;7.03;;;-2.40;96.00;;;;;;5041876;28;20495;-83
2021/01/28 05:15:55;;;;;;;10.38;6.30;;;-2.30;96.00;;;;;;5042849;28;20555;-82
2021/01/28 05:18:34;;;;;;;13.43;6.38;;;-2.30;96.40;;;;;;5042722;28;20059;-82
2021/01/28 05:21:30;;;;;;;13.30;7.90;;;-2.30;96.40;;;;;;5042456;28;20025;-84
2021/01/28 05:24:11;;;;;;;15.20;8.90;;;-2.30;96.70;;;;;;5038310;28;20037;-84
2021/01/28 05:26:42;;;;;;;14.48;7.95;;;-2.30;96.80;;;;;;5042782;28;20040;-84
2021/01/28 05:29:30;;;;;;;13.30;9.07;;;-2.30;97.00;;;;;;5042601;28;20066;-83
2021/01/28 05:31:58;;;;;;;11.10;7.78;;;-2.30;97.00;;;;;;5042292;28;20025;-82
2021/01/28 05:34:28;;;;;;;13.95;8.35;;;-2.10;97.00;;;;;;5042850;28;20032;-85
2021/01/28 05:37:01;;;;;;;12.45;8.73;;;-2.30;96.80;;;;;;5042267;28;20500;-85
2021/01/28 05:39:39;;;;;;;12.65;8.48;;;-2.30;96.40;;;;;;5042304;28;20423;-84
2021/01/28 05:42:29;;;;;;;11.52;7.65;;;-2.40;96.40;;;;;;5041991;28;20033;-83
2021/01/28 05:44:56;;;;;;;10.65;6.50;;;-2.40;96.40;;;;;;5029971;28;20073;-84
2021/01/28 05:47:33;;;;;;;9.65;6.65;;;-2.40;96.20;;;;;;5042308;28;20060;-85
2021/01/28 05:50:26;;;;;;;12.20;7.80;;;-2.50;96.20;;;;;;5042889;28;20033;-83
2021/01/28 05:53:08;;;;;;;10.43;6.68;;;-2.50;96.30;;;;;;5042072;28;20029;-83
2021/01/28 05:55:34;;;;;;;14.25;7.43;;;-2.60;95.90;;;;;;5041390;28;20075;-84
2021/01/28 05:58:06;;;;;;;13.75;7.50;;;-2.00;96.30;;;;;;5040878;28;20042;-82
2021/01/28 06:00:46;;;;;;;11.57;6.75;;;-2.70;96.00;;;;;;5042113;28;20021;-83
2021/01/28 06:03:12;;;;;;;10.23;6.82;;;-2.80;95.90;;;;;;5041352;28;20029;-84
2021/01/28 06:06:06;;;;;;;11.40;7.57;;;-1.80;99.90;;;;;;5040950;28;20563;-83
2021/01/28 06:08:53;;;;;;;11.60;6.93;;;-2.10;99.90;;;;;;5040565;28;20112;-84
2021/01/28 06:11:44;;;;;;;12.82;6.03;;;-2.40;98.50;;;;;;5040829;28;20033;-83
2021/01/28 06:15:03;;;;;;;10.25;5.45;;;-2.60;98.50;;;;;;5043486;28;20464;-83
2021/01/28 06:17:42;;;;;;;9.55;4.00;;;-2.80;97.30;;;;;;4942308;29;20034;-84
2021/01/28 06:20:45;;;;;;;7.05;3.63;;;-2.90;96.50;;;;;;4942623;29;20559;-86
2021/01/28 06:23:32;;;;;;;6.05;3.83;;;-3.00;96.40;;;;;;5031008;28;20029;-85
2021/01/28 06:26:03;;;;;;;5.70;3.15;;;-3.10;96.80;;;;;;5057423;28;20033;-82
2021/01/28 06:28:37;;;;;;;5.65;2.92;;;-3.10;96.90;;;;;;5041227;28;20024;-84
2021/01/28 06:31:27;;;;;;;7.15;3.40;;;-3.20;97.00;;;;;;5040667;28;20031;-85
2021/01/28 06:34:14;;;;;;;5.70;3.40;;;-3.20;96.90;;;;;;5040455;28;20033;-82
2021/01/28 06:36:59;;;;;;;4.57;2.92;;;-3.20;96.90;;;;;;5039859;28;20025;-83
2021/01/28 06:39:46;;;;;;;5.82;3.38;;;-3.20;96.90;;;;;;5039833;28;20079;-83
2021/01/28 06:42:29;;;;;;;8.60;3.20;;;-3.20;96.80;;;;;;5039285;28;20025;-83
2021/01/28 06:45:10;;;;;;;6.28;3.22;;;-3.20;96.90;;;;;;5040230;28;20045;-83
2021/01/28 06:47:54;;;;;;;5.28;3.15;;;-3.10;96.90;;;;;;5040137;28;20041;-84
2021/01/28 06:50:27;;;;;;;5.47;3.20;;;-3.10;96.90;;;;;;5040025;28;20035;-83
2021/01/28 06:53:16;;;;;;;4.13;2.67;;;-3.10;96.70;;;;;;5040235;28;20025;-85
2021/01/28 06:56:03;;;;;;;6.40;3.92;;;-3.10;96.70;;;;;;5040013;28;20416;-82
2021/01/28 06:58:45;;;;;;;8.02;4.50;;;-3.10;97.10;;;;;;5039749;28;20056;-84
2021/01/28 07:01:52;;;;;;;6.80;3.90;;;-3.10;97.00;;;;;;5039883;28;20123;-85
2021/01/28 07:04:32;;;;;;;24.88;9.68;;;-3.10;96.90;;;;;;4952680;28;20557;-83
2021/01/28 07:07:25;;;;;;;74.25;21.75;;;-3.10;97.10;;;;;;5039381;28;20484;-82
2021/01/28 07:09:57;;;;;;;17.63;7.20;;;-3.00;97.50;;;;;;5039319;28;20036;-83
2021/01/28 07:12:35;;;;;;;10.15;6.25;;;-3.00;97.60;;;;;;5057258;28;20033;-85
2021/01/28 07:15:03;;;;;;;9.05;5.25;;;-2.90;97.60;;;;;;5040129;28;20036;-85
2021/01/28 07:17:38;;;;;;;9.45;5.93;;;-2.90;97.40;;;;;;5040467;28;20029;-83
2021/01/28 07:20:23;;;;;;;10.02;5.72;;;-2.80;97.50;;;;;;5039651;28;20021;-84
2021/01/28 07:22:48;;;;;;;10.80;6.40;;;-2.70;97.70;;;;;;5023379;28;20053;-84
2021/01/28 07:25:20;;;;;;;10.48;6.40;;;-2.70;97.90;;;;;;5039268;28;20072;-83
2021/01/28 07:28:11;;;;;;;14.45;8.75;;;-2.50;97.90;;;;;;5039272;28;20025;-84
2021/01/28 07:31:03;;;;;;;18.77;7.60;;;-2.50;97.80;;;;;;5028426;28;20116;-83
2021/01/28 07:33:29;;;;;;;15.02;7.88;;;-2.30;97.60;;;;;;5002099;28;20037;-83
2021/01/28 07:36:20;;;;;;;14.15;7.85;;;-2.20;97.40;;;;;;5039757;28;20025;-83
2021/01/28 07:38:52;;;;;;;13.27;7.97;;;-2.10;97.10;;;;;;5038783;28;20029;-83
2021/01/28 07:41:20;;;;;;;13.40;8.68;;;-1.90;97.00;;;;;;5038880;28;20075;-84
2021/01/28 07:43:50;;;;;;;16.83;8.82;;;-1.70;96.60;;;;;;5038119;28;20063;-84
2021/01/28 07:46:18;;;;;;;24.58;15.55;;;-1.80;96.00;;;;;;5038033;28;20079;-83
2021/01/28 07:48:46;;;;;;;45.72;26.58;;;-1.70;96.10;;;;;;5038802;28;20021;-83
2021/01/28 07:51:36;;;;;;;16.92;9.30;;;-1.60;95.60;;;;;;5040148;28;20025;-85
2021/01/28 07:54:06;;;;;;;13.75;9.23;;;-1.60;95.60;;;;;;5039842;28;20033;-84
2021/01/28 07:56:43;;;;;;;12.10;7.75;;;-1.40;95.60;;;;;;5041865;28;20116;-83
2021/01/28 07:59:20;;;;;;;15.73;8.57;;;-1.40;95.30;;;;;;5041684;28;20021;-83
2021/01/28 08:01:48;;;;;;;17.75;9.52;;;-1.30;94.70;;;;;;5038739;28;20029;-85
2021/01/28 08:04:33;;;;;;;12.52;7.53;;;-1.00;94.60;;;;;;5038528;28;20449;-84
2021/01/28 08:07:03;;;;;;;13.48;6.93;;;-1.20;94.60;;;;;;5039217;28;20044;-84
2021/01/28 08:09:29;;;;;;;21.33;12.00;;;-1.10;94.30;;;;;;5039708;28;20021;-85
2021/01/28 08:11:56;;;;;;;13.43;8.30;;;-1.10;94.30;;;;;;5039448;28;20033;-84
2021/01/28 08:14:24;;;;;;;13.65;8.43;;;-0.70;94.40;;;;;;5039674;28;20060;-84
2021/01/28 08:16:53;;;;;;;11.88;7.50;;;-0.90;94.30;;;;;;5039276;28;20021;-85
2021/01/28 08:19:25;;;;;;;16.38;8.15;;;-0.80;93.80;;;;;;5038843;28;20025;-83
2021/01/28 08:22:19;;;;;;;14.75;9.15;;;-0.50;93.70;;;;;;5038857;28;20029;-84
2021/01/28 08:24:57;;;;;;;12.43;8.48;;;-0.40;93.00;;;;;;5036410;28;20110;-84
2021/01/28 08:27:38;;;;;;;11.80;7.63;;;-0.70;92.80;;;;;;5038153;28;20128;-84
2021/01/28 08:30:06;;;;;;;12.63;8.57;;;-0.50;93.10;;;;;;5038746;28;20032;-83
2021/01/28 08:32:33;;;;;;;17.95;9.48;;;-0.50;93.00;;;;;;5038587;28;20179;-83
2021/01/28 08:35:22;;;;;;;19.20;10.13;;;0.10;92.70;;;;;;5038299;28;20025;-83
2021/01/28 08:37:48;;;;;;;22.95;10.85;;;-0.30;92.70;;;;;;5037724;28;20123;-84
2021/01/28 08:40:18;;;;;;;24.80;10.77;;;-0.40;92.50;;;;;;5038067;28;20056;-83
2021/01/28 08:42:44;;;;;;;19.20;9.43;;;1.50;99.90;;;;;;5037583;28;20030;-85
2021/01/28 08:45:17;;;;;;;14.20;7.85;;;1.10;95.00;;;;;;5038347;28;20116;-82
2021/01/28 08:47:54;;;;;;;14.52;7.88;;;1.00;90.20;;;;;;5038204;28;20029;-83
2021/01/28 08:50:24;;;;;;;13.25;7.53;;;0.80;90.10;;;;;;5038022;28;20116;-83
2021/01/28 08:52:53;;;;;;;9.68;6.65;;;0.60;90.20;;;;;;5038089;28;20055;-84
2021/01/28 08:55:22;;;;;;;12.95;6.85;;;0.90;90.60;;;;;;5038041;28;20047;-83
2021/01/28 08:57:50;;;;;;;10.13;5.13;;;0.50;91.00;;;;;;5038383;28;20021;-84
2021/01/28 09:00:21;;;;;;;13.77;7.57;;;0.40;90.50;;;;;;5038005;28;20025;-85
2021/01/28 09:02:50;;;;;;;9.27;4.88;;;1.30;97.80;;;;;;5037672;28;20032;-84
2021/01/28 09:05:26;;;;;;;9.93;5.20;;;1.30;89.00;;;;;;5037590;28;20033;-85
2021/01/28 09:07:58;;;;;;;10.32;4.72;;;0.90;89.60;;;;;;5037395;28;20052;-84
2021/01/28 09:10:29;;;;;;;9.38;4.57;;;0.80;88.90;;;;;;5037241;28;20016;-84
2021/01/28 09:13:14;;;;;;;9.02;5.20;;;0.80;89.60;;;;;;5036353;28;20029;-85
2021/01/28 09:15:41;;;;;;;6.90;4.05;;;0.70;90.10;;;;;;5036934;28;20029;-83
2021/01/28 09:18:15;;;;;;;7.38;4.22;;;0.80;90.10;;;;;;5037537;28;20021;-84
2021/01/28 09:20:41;;;;;;;9.95;4.28;;;0.70;90.50;;;;;;5037261;28;20029;-84
2021/01/28 09:23:10;;;;;;;10.15;4.57;;;0.80;90.30;;;;;;5037261;28;20135;-84
2021/01/28 09:25:37;;;;;;;8.93;4.75;;;0.90;90.40;;;;;;5037159;28;20365;-84
2021/01/28 09:28:08;;;;;;;12.02;9.30;;;0.90;90.80;;;;;;5037185;28;20563;-82
2021/01/28 09:30:40;;;;;;;7.75;4.38;;;1.90;99.90;;;;;;5037283;28;20118;-84
2021/01/28 09:33:29;;;;;;;8.25;4.28;;;2.50;84.10;;;;;;5040749;28;20017;-84
2021/01/28 09:36:06;;;;;;;11.07;4.72;;;2.10;83.10;;;;;;5040543;28;20025;-83
2021/01/28 09:38:33;;;;;;;9.13;3.85;;;1.90;85.50;;;;;;5041167;28;20055;-84
2021/01/28 09:41:17;;;;;;;22.17;9.60;;;1.80;83.40;;;;;;5040758;28;20025;-82
2021/01/28 09:43:44;;;;;;;40.47;19.27;;;1.80;83.80;;;;;;5037884;28;20408;-80
2021/01/28 09:46:35;;;;;;;9.88;5.07;;;1.80;83.00;;;;;;5054783;28;20120;-83
2021/01/28 09:49:01;;;;;;;12.80;4.75;;;1.90;79.10;;;;;;5036658;28;20130;-85
2021/01/28 09:51:36;;;;;;;14.35;9.55;;;2.00;78.50;;;;;;5041417;28;20479;-81
2021/01/28 09:54:11;;;;;;;14.75;7.10;;;2.00;80.10;;;;;;5054805;28;20468;-79
2021/01/28 09:56:37;;;;;;;14.77;8.52;;;2.20;79.20;;;;;;5036972;28;20373;-79
2021/01/28 09:59:03;;;;;;;8.32;6.22;;;2.40;79.50;;;;;;5054764;28;20025;-80
2021/01/28 10:01:29;;;;;;;15.30;10.70;;;2.50;79.00;;;;;;5054786;28;20071;-80
2021/01/28 10:03:54;;;;;;;10.77;4.80;;;2.60;77.20;;;;;;5036964;28;20059;-79
2021/01/28 10:06:20;;;;;;;10.50;4.40;;;2.70;75.30;;;;;;5038252;28;20064;-83
2021/01/28 10:08:46;;;;;;;8.60;4.47;;;2.80;74.00;;;;;;5038462;28;20104;-82
2021/01/28 10:11:11;;;;;;;8.15;4.50;;;2.90;71.60;;;;;;5039193;28;20033;-80
2021/01/28 10:13:37;;;;;;;10.82;5.63;;;3.10;89.10;;;;;;5038796;28;20025;-82
2021/01/28 10:16:03;;;;;;;24.95;5.47;;;4.10;85.00;;;;;;5039185;28;20061;-84
2021/01/28 10:18:29;;;;;;;17.90;8.18;;;4.80;75.40;;;;;;5038917;28;20029;-87
2021/01/28 10:20:54;;;;;;;17.77;7.75;;;5.40;72.50;;;;;;5039225;28;20064;-83
2021/01/28 10:23:20;;;;;;;14.07;7.28;;;5.80;68.30;;;;;;5038532;28;20025;-85
2021/01/28 10:25:46;;;;;;;12.65;5.18;;;5.70;67.90;;;;;;5038577;28;20063;-84
2021/01/28 10:28:12;;;;;;;10.52;5.25;;;5.70;67.70;;;;;;5038423;28;20103;-84
2021/01/28 10:30:37;;;;;;;10.48;4.97;;;5.60;66.00;;;;;;5038735;28;20439;-85
2021/01/28 10:33:04;;;;;;;10.13;4.50;;;5.50;66.00;;;;;;5038974;28;20031;-85
2021/01/28 10:35:32;;;;;;;17.77;8.43;;;5.20;61.10;;;;;;5038238;28;20032;-82
2021/01/28 10:37:58;;;;;;;31.52;22.08;;;4.80;62.30;;;;;;5038603;28;20025;-83
2021/01/28 10:40:25;;;;;;;12.35;7.60;;;4.70;63.00;;;;;;5038097;28;20025;-83
2021/01/28 10:42:56;;;;;;;12.70;4.75;;;4.60;63.80;;;;;;5036705;28;20041;-83
2021/01/28 10:45:34;;;;;;;13.48;4.90;;;4.50;63.20;;;;;;5038073;28;20040;-82
2021/01/28 10:48:01;;;;;;;31.55;15.77;;;4.50;64.90;;;;;;5038348;28;20036;-84
2021/01/28 10:50:28;;;;;;;24.17;10.40;;;4.60;63.90;;;;;;5038411;28;20064;-83
2021/01/28 10:52:54;;;;;;;34.20;15.52;;;4.70;64.00;;;;;;5038173;28;20547;-84
2021/01/28 10:55:21;;;;;;;12.05;5.28;;;4.60;61.40;;;;;;5056425;28;20060;-85
2021/01/28 10:57:46;;;;;;;18.00;6.57;;;4.60;59.90;;;;;;5038497;28;20036;-84
2021/01/28 11:00:13;;;;;;;11.90;5.32;;;4.70;60.00;;;;;;5038904;28;20033;-86
2021/01/28 11:02:39;;;;;;;11.40;6.70;;;4.70;58.10;;;;;;5056005;28;20062;-85
2021/01/28 11:05:18;;;;;;;14.93;5.45;;;4.80;58.20;;;;;;5038099;28;20407;-84
2021/01/28 11:07:44;;;;;;;7.35;4.55;;;4.90;59.60;;;;;;5034105;28;20032;-84
2021/01/28 11:10:11;;;;;;;8.50;3.00;;;5.10;58.30;;;;;;5033917;28;20475;-82
2021/01/28 11:12:37;;;;;;;7.10;3.15;;;5.10;60.40;;;;;;5037681;28;20029;-84
2021/01/28 11:15:05;;;;;;;4.80;2.60;;;5.10;59.60;;;;;;5031657;28;20083;-85
2021/01/28 11:17:30;;;;;;;4.35;2.70;;;5.30;57.20;;;;;;5038041;28;20392;-82
2021/01/28 11:19:56;;;;;;;6.22;3.75;;;5.30;57.20;;;;;;5037923;28;20119;-85
2021/01/28 11:22:21;;;;;;;21.95;3.40;;;5.30;56.30;;;;;;5055391;28;20096;-83
2021/01/28 11:24:47;;;;;;;5.40;2.92;;;5.10;56.30;;;;;;5055813;28;20037;-81
2021/01/28 11:27:13;;;;;;;5.82;4.10;;;5.20;56.80;;;;;;5038215;28;20040;-85
2021/01/28 11:29:39;;;;;;;11.45;9.88;;;5.20;59.30;;;;;;5037961;28;20021;-85
2021/01/28 11:32:04;;;;;;;16.90;10.70;;;5.30;57.50;;;;;;5037606;28;20036;-84
2021/01/28 11:34:31;;;;;;;7.10;3.45;;;5.20;59.30;;;;;;5037452;28;20021;-83
2021/01/28 11:36:57;;;;;;;32.03;12.70;;;5.20;60.40;;;;;;5037655;28;20025;-83
2021/01/28 11:39:22;;;;;;;12.70;8.02;;;5.30;59.30;;;;;;5037519;28;20040;-84
2021/01/28 11:41:48;;;;;;;15.73;10.80;;;5.30;58.60;;;;;;5055345;28;20032;-85
2021/01/28 11:44:13;;;;;;;10.52;7.20;;;5.20;59.60;;;;;;5037346;28;20072;-85
2021/01/28 11:46:39;;;;;;;15.77;7.97;;;5.20;58.80;;;;;;5037320;28;20036;-85
2021/01/28 11:49:05;;;;;;;8.60;5.28;;;5.30;58.30;;;;;;5037501;28;20020;-85
2021/01/28 11:51:30;;;;;;;9.38;6.10;;;5.20;59.20;;;;;;5037304;28;20025;-83
2021/01/28 11:53:56;;;;;;;9.27;8.32;;;5.30;59.50;;;;;;5037208;28;20053;-85
2021/01/28 11:56:21;;;;;;;8.20;3.63;;;5.30;60.40;;;;;;5037439;28;20068;-85
2021/01/28 11:58:47;;;;;;;7.57;3.65;;;5.20;58.10;;;;;;5037389;28;20073;-86
2021/01/28 12:01:13;;;;;;;20.63;5.10;;;5.20;58.20;;;;;;5037099;28;20132;-86
2021/01/28 12:03:38;;;;;;;23.83;17.08;;;5.10;60.80;;;;;;5036914;28;20025;-83
2021/01/28 12:06:04;;;;;;;7.07;4.55;;;5.00;59.50;;;;;;5036876;28;20037;-85
2021/01/28 12:08:30;;;;;;;8.40;4.00;;;5.00;60.00;;;;;;5037384;28;20116;-84
2021/01/28 12:10:55;;;;;;;19.67;15.05;;;5.00;60.90;;;;;;5037343;28;20033;-83
2021/01/28 12:13:21;;;;;;;14.77;6.63;;;4.90;60.60;;;;;;5036779;28;20025;-84
2021/01/28 12:15:46;;;;;;;8.27;6.72;;;4.90;61.70;;;;;;5037284;28;20029;-83
2021/01/28 12:18:12;;;;;;;10.52;6.53;;;4.90;61.50;;;;;;5054973;28;20027;-85
2021/01/28 12:20:38;;;;;;;18.92;12.77;;;4.90;62.50;;;;;;5037219;28;20029;-85
2021/01/28 12:23:04;;;;;;;10.85;7.00;;;4.90;63.40;;;;;;5054542;28;20021;-85
2021/01/28 12:25:30;;;;;;;22.27;13.65;;;4.80;61.40;;;;;;5036793;28;20399;-83
2021/01/28 12:27:56;;;;;;;12.55;7.38;;;4.80;62.20;;;;;;5054476;28;20104;-84
2021/01/28 12:30:24;;;;;;;21.35;8.52;;;4.80;61.60;;;;;;5037235;28;20044;-85
2021/01/28 12:32:50;;;;;;;12.77;6.07;;;4.90;62.70;;;;;;5037371;28;20021;-84
2021/01/28 12:35:17;;;;;;;9.25;5.35;;;4.90;62.80;;;;;;5037646;28;20025;-83
2021/01/28 12:37:43;;;;;;;17.75;5.95;;;4.90;63.00;;;;;;5054629;28;20048;-83
2021/01/28 12:40:11;;;;;;;10.05;6.40;;;4.70;64.70;;;;;;5036661;28;20037;-85
2021/01/28 12:42:37;;;;;;;11.05;5.57;;;4.70;63.70;;;;;;5036745;28;20043;-84
2021/01/28 12:45:05;;;;;;;19.00;7.20;;;4.60;63.70;;;;;;5040970;28;20464;-84
2021/01/28 12:47:41;;;;;;;9.88;5.30;;;4.70;63.30;;;;;;5064878;28;20040;-85
2021/01/28 12:50:10;;;;;;;14.85;10.27;;;4.70;64.50;;;;;;5029559;28;20025;-86
2021/01/28 12:52:48;;;;;;;21.00;14.95;;;4.50;65.20;;;;;;5050139;28;20025;-85
2021/01/28 12:55:16;;;;;;;14.90;5.63;;;4.50;66.60;;;;;;5056563;28;20017;-85
2021/01/28 12:58:10;;;;;;;9.63;5.97;;;4.50;67.40;;;;;;5040333;28;20025;-83
2021/01/28 13:00:52;;;;;;;6.03;4.40;;;4.40;66.50;;;;;;5061745;28;20036;-85
2021/01/28 13:03:18;;;;;;;8.77;6.30;;;4.50;66.80;;;;;;5045327;28;20036;-85